Time;durP1;ratioP1;P1;durP2;ratioP2;P2;SDS_P1;SDS_P2;PMS_P1;PMS_P2;Temp;Humidity;BMP_temperature;BMP_pressure;BME280_temperature;BME280_humidity;BME280_pressure;Samples;Min_cycle;Max_cycle;Signal;HPM_P1;HPM_P2
2021/05/22 00:00:38;;;;;;;3.10;1.70;;;8.60;99.90;;;;;;5051906;28;20207;-63
2021/05/22 00:03:04;;;;;;;2.93;1.40;;;8.70;99.90;;;;;;5052297;28;20539;-63
2021/05/22 00:05:30;;;;;;;1.33;1.07;;;8.70;99.90;;;;;;5052237;28;20208;-64
2021/05/22 00:07:55;;;;;;;1.33;1.23;;;8.70;99.90;;;;;;5052345;28;20255;-63
2021/05/22 00:10:21;;;;;;;2.77;1.83;;;8.70;99.90;;;;;;5051856;28;20202;-63
2021/05/22 00:12:47;;;;;;;2.97;1.20;;;8.60;99.90;;;;;;5052293;28;20167;-63
2021/05/22 00:15:15;;;;;;;4.00;1.40;;;8.70;99.90;;;;;;5052151;28;20168;-63
2021/05/22 00:17:41;;;;;;;2.10;1.50;;;8.60;99.90;;;;;;5052114;28;20246;-63
2021/05/22 00:20:08;;;;;;;2.40;1.30;;;8.50;99.90;;;;;;5051769;28;20523;-63
2021/05/22 00:22:34;;;;;;;1.73;1.63;;;8.50;99.90;;;;;;5052083;28;20448;-62
2021/05/22 00:25:00;;;;;;;1.50;1.27;;;8.50;99.90;;;;;;5051778;28;20446;-64
2021/05/22 00:27:26;;;;;;;1.67;1.33;;;8.50;99.90;;;;;;5052154;28;20409;-63
2021/05/22 00:29:51;;;;;;;1.90;1.17;;;8.50;99.90;;;;;;5051672;28;20687;-62
2021/05/22 00:32:17;;;;;;;4.20;2.13;;;8.40;99.90;;;;;;5051904;28;20494;-64
2021/05/22 00:34:43;;;;;;;1.17;1.10;;;8.40;99.90;;;;;;5050881;28;20526;-64
2021/05/22 00:37:08;;;;;;;2.60;1.43;;;8.30;99.90;;;;;;5051885;28;20172;-62
2021/05/22 00:39:34;;;;;;;7.50;1.53;;;8.30;99.90;;;;;;5051474;28;20204;-62
2021/05/22 00:42:03;;;;;;;4.90;1.37;;;8.40;99.90;;;;;;5051855;28;20517;-62
2021/05/22 00:44:31;;;;;;;2.93;1.87;;;8.30;99.90;;;;;;5051822;28;20205;-62
2021/05/22 00:47:01;;;;;;;6.50;1.47;;;8.30;99.90;;;;;;5051806;28;20406;-62
2021/05/22 00:49:27;;;;;;;4.93;1.50;;;8.20;99.90;;;;;;5051566;28;20403;-62
2021/05/22 00:51:53;;;;;;;3.63;2.37;;;8.30;99.90;;;;;;5051727;28;20460;-63
2021/05/22 00:54:20;;;;;;;2.50;1.20;;;8.20;99.90;;;;;;5051840;28;20413;-63
2021/05/22 00:56:47;;;;;;;2.13;1.30;;;8.20;99.90;;;;;;5052126;28;20417;-60
2021/05/22 00:59:15;;;;;;;2.00;0.97;;;8.20;99.90;;;;;;5051933;28;20409;-62
2021/05/22 01:01:42;;;;;;;4.53;1.13;;;8.20;99.90;;;;;;5051712;28;20850;-62
2021/05/22 01:04:10;;;;;;;1.70;1.60;;;8.20;99.90;;;;;;5051913;28;20459;-61
2021/05/22 01:06:35;;;;;;;1.17;1.07;;;8.20;99.90;;;;;;5051711;28;20410;-63
2021/05/22 01:09:09;;;;;;;3.03;1.60;;;8.20;99.90;;;;;;5051537;28;20471;-63
2021/05/22 01:11:50;;;;;;;3.50;1.40;;;8.10;99.90;;;;;;5051659;28;20547;-63
2021/05/22 01:14:22;;;;;;;3.10;1.70;;;8.10;99.90;;;;;;5051608;28;20960;-62
2021/05/22 01:16:52;;;;;;;2.50;1.40;;;8.10;99.90;;;;;;5051473;28;20410;-62
2021/05/22 01:19:47;;;;;;;2.93;2.27;;;8.10;99.90;;;;;;5051214;28;20831;-63
2021/05/22 01:22:14;;;;;;;1.23;1.10;;;8.10;99.90;;;;;;5051238;28;20420;-62
2021/05/22 01:24:47;;;;;;;1.40;1.10;;;8.10;99.90;;;;;;5051302;28;20471;-62
2021/05/22 01:27:13;;;;;;;1.90;1.30;;;8.10;99.90;;;;;;5051488;28;20478;-62
2021/05/22 01:29:39;;;;;;;1.07;1.00;;;8.10;99.90;;;;;;5049753;28;20797;-62
2021/05/22 01:32:05;;;;;;;1.40;1.30;;;8.20;99.90;;;;;;5051363;28;20411;-62
2021/05/22 01:34:32;;;;;;;4.77;1.13;;;8.10;99.90;;;;;;5051457;28;20198;-63
2021/05/22 01:36:58;;;;;;;2.87;0.90;;;8.10;99.90;;;;;;5051339;28;20440;-64
2021/05/22 01:39:23;;;;;;;1.73;1.30;;;8.00;99.90;;;;;;5051336;28;20422;-61
2021/05/22 01:41:49;;;;;;;6.67;1.30;;;8.00;99.90;;;;;;5051406;28;20211;-62
2021/05/22 01:44:15;;;;;;;5.10;1.53;;;7.90;99.90;;;;;;5051333;28;20191;-62
2021/05/22 01:46:42;;;;;;;3.33;1.20;;;8.00;99.90;;;;;;5053480;28;20170;-62
2021/05/22 01:49:10;;;;;;;1.47;1.37;;;8.00;99.90;;;;;;5054812;28;20932;-63
2021/05/22 01:51:36;;;;;;;2.70;2.27;;;8.00;99.90;;;;;;5055270;28;20465;-64
2021/05/22 01:54:03;;;;;;;3.07;1.50;;;8.00;99.90;;;;;;5055123;28;20417;-63
2021/05/22 01:56:29;;;;;;;2.10;1.50;;;8.00;99.90;;;;;;5054940;28;20421;-63
2021/05/22 01:58:54;;;;;;;3.57;1.47;;;7.80;99.90;;;;;;5054766;28;20502;-63
2021/05/22 02:01:24;;;;;;;7.20;1.53;;;7.80;99.90;;;;;;5054673;28;20275;-63
2021/05/22 02:03:51;;;;;;;4.97;1.43;;;7.80;99.90;;;;;;5054909;28;20174;-63
2021/05/22 02:06:23;;;;;;;1.50;1.40;;;7.90;99.90;;;;;;5054839;28;20497;-63
2021/05/22 02:08:58;;;;;;;6.57;1.60;;;7.80;99.90;;;;;;5054721;28;20407;-63
2021/05/22 02:11:27;;;;;;;1.87;1.33;;;7.80;99.90;;;;;;5054826;28;20467;-63
2021/05/22 02:13:54;;;;;;;3.13;1.97;;;7.80;99.90;;;;;;5054695;28;20490;-62
2021/05/22 02:16:25;;;;;;;1.63;1.30;;;7.80;99.90;;;;;;5054588;28;20847;-62
2021/05/22 02:18:53;;;;;;;2.10;1.20;;;7.80;99.90;;;;;;5054555;28;20457;-62
2021/05/22 02:21:23;;;;;;;4.83;2.33;;;7.70;99.90;;;;;;5054583;28;20435;-63
2021/05/22 02:23:49;;;;;;;4.13;1.43;;;7.80;99.90;;;;;;5054714;28;20409;-61
2021/05/22 02:26:16;;;;;;;3.50;1.27;;;7.80;99.90;;;;;;5054558;28;20411;-62
2021/05/22 02:28:43;;;;;;;3.70;1.50;;;7.80;99.90;;;;;;5054573;28;20492;-63
2021/05/22 02:31:10;;;;;;;4.27;1.83;;;7.80;99.90;;;;;;5054099;28;20941;-62
2021/05/22 02:33:37;;;;;;;4.03;1.57;;;7.70;99.90;;;;;;5054545;28;20889;-65
2021/05/22 02:36:03;;;;;;;4.70;1.37;;;7.70;99.90;;;;;;5054677;28;20769;-63
2021/05/22 02:38:33;;;;;;;1.63;1.30;;;7.80;99.90;;;;;;5054385;28;20409;-62
2021/05/22 02:41:02;;;;;;;1.80;1.63;;;7.80;99.90;;;;;;5054192;28;20512;-61
2021/05/22 02:43:29;;;;;;;2.53;1.40;;;7.70;99.90;;;;;;5054507;28;20421;-63
2021/05/22 02:45:56;;;;;;;5.83;2.07;;;7.80;99.90;;;;;;5054342;28;20460;-63
2021/05/22 02:48:23;;;;;;;3.50;2.10;;;7.80;99.90;;;;;;5054065;28;20414;-63
2021/05/22 02:50:50;;;;;;;6.80;2.40;;;7.80;99.90;;;;;;5053729;28;20473;-63
2021/05/22 02:53:22;;;;;;;4.70;1.60;;;7.80;99.90;;;;;;5054155;28;20495;-64
2021/05/22 02:55:49;;;;;;;5.80;1.93;;;7.90;99.90;;;;;;5054058;28;20421;-62
2021/05/22 02:58:16;;;;;;;2.33;2.10;;;7.90;99.90;;;;;;5053300;28;20447;-64
2021/05/22 03:00:43;;;;;;;5.73;2.80;;;7.90;99.90;;;;;;5053734;28;20545;-61
2021/05/22 03:03:09;;;;;;;1.60;1.50;;;7.90;99.90;;;;;;5054053;28;20426;-63
2021/05/22 03:05:35;;;;;;;5.37;2.20;;;7.90;99.90;;;;;;5054033;28;20464;-63
2021/05/22 03:08:01;;;;;;;4.33;1.70;;;7.90;99.90;;;;;;5054071;28;20831;-62
2021/05/22 03:10:28;;;;;;;1.73;1.63;;;7.90;99.90;;;;;;5053440;28;20429;-64
2021/05/22 03:12:54;;;;;;;1.40;1.27;;;7.90;99.90;;;;;;5053690;28;20467;-62
2021/05/22 03:15:19;;;;;;;4.97;1.60;;;7.90;99.90;;;;;;5053429;28;20413;-63
2021/05/22 03:17:45;;;;;;;4.60;2.10;;;8.00;99.90;;;;;;5053514;28;20174;-64
2021/05/22 03:20:11;;;;;;;4.87;2.37;;;8.00;99.90;;;;;;5053111;28;20235;-62
2021/05/22 03:22:37;;;;;;;1.73;1.33;;;8.00;99.90;;;;;;5053621;28;20231;-62
2021/05/22 03:25:04;;;;;;;2.20;1.60;;;8.10;99.90;;;;;;5053252;28;20554;-63
2021/05/22 03:27:30;;;;;;;1.93;1.30;;;8.10;99.90;;;;;;5053585;28;20182;-64
2021/05/22 03:29:57;;;;;;;1.97;1.47;;;8.10;99.90;;;;;;5053128;28;20430;-64
2021/05/22 03:32:22;;;;;;;2.73;1.43;;;8.10;99.90;;;;;;5053284;28;20467;-62
2021/05/22 03:34:48;;;;;;;1.27;1.20;;;8.10;99.90;;;;;;5053167;28;20898;-63
2021/05/22 03:37:14;;;;;;;2.83;1.50;;;8.10;99.90;;;;;;5053244;28;20169;-62
2021/05/22 03:39:39;;;;;;;1.63;1.53;;;8.10;99.90;;;;;;5052711;28;20191;-61
2021/05/22 03:42:05;;;;;;;3.23;1.33;;;8.10;99.90;;;;;;5053102;28;20179;-63
2021/05/22 03:44:31;;;;;;;2.63;1.50;;;8.10;99.90;;;;;;5053128;28;20199;-62
2021/05/22 03:46:56;;;;;;;5.17;1.70;;;8.20;99.90;;;;;;5052980;28;20207;-63
2021/05/22 03:49:22;;;;;;;4.47;1.70;;;8.20;99.90;;;;;;5052756;28;20304;-63
2021/05/22 03:51:47;;;;;;;5.30;1.67;;;8.10;99.90;;;;;;5052863;28;20164;-63
2021/05/22 03:54:13;;;;;;;4.03;1.60;;;8.20;99.90;;;;;;5052982;28;20235;-62
2021/05/22 03:56:39;;;;;;;12.03;2.13;;;8.20;99.90;;;;;;5052702;28;20189;-63
2021/05/22 03:59:04;;;;;;;3.43;1.97;;;8.30;99.90;;;;;;5052619;28;20174;-60
2021/05/22 04:01:30;;;;;;;5.13;2.33;;;8.20;99.90;;;;;;5052815;28;20627;-62
2021/05/22 04:03:56;;;;;;;1.40;1.30;;;8.20;99.90;;;;;;5052699;28;20230;-63
2021/05/22 04:06:21;;;;;;;1.87;1.57;;;8.20;99.90;;;;;;5053069;28;20214;-63
2021/05/22 04:08:47;;;;;;;4.80;2.10;;;8.20;99.90;;;;;;5052360;28;20161;-63
2021/05/22 04:11:12;;;;;;;3.80;2.23;;;8.20;99.90;;;;;;5052265;28;20187;-63
2021/05/22 04:13:38;;;;;;;6.43;1.67;;;8.20;99.90;;;;;;5052459;28;20171;-63
2021/05/22 04:16:04;;;;;;;4.00;1.50;;;8.30;99.90;;;;;;5052344;28;20244;-64
2021/05/22 04:18:30;;;;;;;2.47;1.70;;;8.20;99.90;;;;;;5052404;28;20258;-64
2021/05/22 04:20:55;;;;;;;7.10;1.93;;;8.30;99.90;;;;;;5051979;28;20475;-62
2021/05/22 04:23:21;;;;;;;4.30;1.97;;;8.30;99.90;;;;;;5052252;28;20170;-63
2021/05/22 04:25:46;;;;;;;2.87;2.20;;;8.30;99.90;;;;;;5052128;28;20589;-63
2021/05/22 04:28:12;;;;;;;4.50;2.03;;;8.20;99.90;;;;;;5052262;28;20193;-63
2021/05/22 04:30:37;;;;;;;1.87;1.70;;;8.30;99.90;;;;;;5051793;28;20217;-63
2021/05/22 04:33:03;;;;;;;4.67;2.23;;;8.30;99.90;;;;;;5052001;28;20176;-62
2021/05/22 04:35:29;;;;;;;4.40;1.60;;;8.30;99.90;;;;;;5051899;28;20182;-61
2021/05/22 04:37:55;;;;;;;1.70;1.60;;;8.10;99.90;;;;;;5051911;28;20172;-63
2021/05/22 04:40:20;;;;;;;5.67;2.07;;;8.10;99.90;;;;;;5051452;28;20202;-64
2021/05/22 04:42:46;;;;;;;5.23;1.67;;;8.00;99.90;;;;;;5051889;28;20405;-63
2021/05/22 04:45:12;;;;;;;2.43;1.50;;;7.90;99.90;;;;;;5051785;28;20582;-62
2021/05/22 04:47:38;;;;;;;3.60;2.10;;;7.90;99.90;;;;;;5051848;28;20173;-61
2021/05/22 04:50:06;;;;;;;2.73;2.53;;;7.90;99.90;;;;;;5051554;28;20471;-62
2021/05/22 04:52:32;;;;;;;3.10;1.40;;;7.90;99.90;;;;;;5051925;28;20400;-63
2021/05/22 04:54:58;;;;;;;1.77;1.67;;;7.90;99.90;;;;;;5052020;28;20405;-63
2021/05/22 04:57:23;;;;;;;1.63;1.53;;;7.90;99.90;;;;;;5052227;28;20171;-64
2021/05/22 04:59:49;;;;;;;1.87;1.30;;;7.80;99.90;;;;;;5051508;28;20686;-63
2021/05/22 05:02:15;;;;;;;3.00;1.53;;;7.80;99.90;;;;;;5051786;28;20182;-61
2021/05/22 05:04:40;;;;;;;1.70;1.50;;;7.80;99.90;;;;;;5051830;28;20223;-63
2021/05/22 05:07:06;;;;;;;3.50;1.70;;;7.80;99.90;;;;;;5051978;28;20171;-63
2021/05/22 05:09:35;;;;;;;2.20;1.40;;;7.90;99.90;;;;;;5051766;28;20178;-63
2021/05/22 05:12:02;;;;;;;2.43;1.07;;;7.90;99.90;;;;;;5052177;28;20171;-62
2021/05/22 05:14:28;;;;;;;2.30;1.23;;;7.90;99.90;;;;;;5052100;28;20485;-63
2021/05/22 05:16:54;;;;;;;1.60;1.50;;;7.90;99.90;;;;;;5051979;28;20540;-60
2021/05/22 05:19:20;;;;;;;3.43;1.73;;;8.00;99.90;;;;;;5051491;28;20516;-63
2021/05/22 05:21:45;;;;;;;1.70;1.17;;;8.00;99.90;;;;;;5054371;28;20175;-63
2021/05/22 05:24:11;;;;;;;2.63;1.50;;;8.00;99.90;;;;;;5055715;28;20184;-61
2021/05/22 05:26:37;;;;;;;8.63;2.73;;;8.00;99.90;;;;;;5054807;28;20205;-59
2021/05/22 05:29:02;;;;;;;1.70;1.40;;;8.00;99.90;;;;;;5055508;28;20160;-63
2021/05/22 05:31:28;;;;;;;3.13;1.50;;;8.00;99.90;;;;;;5055725;28;20187;-64
2021/05/22 05:33:53;;;;;;;1.97;1.07;;;7.90;99.90;;;;;;5055375;28;20257;-62
2021/05/22 05:36:19;;;;;;;3.83;1.67;;;8.00;99.90;;;;;;5055146;28;20638;-62
2021/05/22 05:38:44;;;;;;;1.67;1.30;;;8.10;99.90;;;;;;5055099;28;20158;-61
2021/05/22 05:41:10;;;;;;;3.30;1.43;;;8.10;99.90;;;;;;5054756;28;20561;-61
2021/05/22 05:43:36;;;;;;;5.93;1.57;;;8.20;99.90;;;;;;5055038;28;20169;-62
2021/05/22 05:46:01;;;;;;;6.07;1.70;;;8.30;99.90;;;;;;5054834;28;20197;-61
2021/05/22 05:48:27;;;;;;;3.60;1.20;;;8.30;99.90;;;;;;5055023;28;20178;-62
2021/05/22 05:50:52;;;;;;;2.20;1.10;;;8.30;99.90;;;;;;5054536;28;20200;-61
2021/05/22 05:53:18;;;;;;;3.00;1.30;;;8.50;99.90;;;;;;5054975;28;20250;-61
2021/05/22 05:55:45;;;;;;;2.83;1.50;;;8.60;99.90;;;;;;5054655;28;20167;-61
2021/05/22 05:58:10;;;;;;;1.90;1.30;;;8.70;99.90;;;;;;5054791;28;20464;-60
2021/05/22 06:00:36;;;;;;;2.97;1.50;;;8.80;99.90;;;;;;5054128;28;20450;-62
2021/05/22 06:03:02;;;;;;;4.43;1.63;;;8.90;99.90;;;;;;5055010;28;20179;-62
2021/05/22 06:05:27;;;;;;;1.60;1.07;;;8.80;99.90;;;;;;5054592;28;20232;-62
2021/05/22 06:07:53;;;;;;;4.00;1.30;;;8.90;99.90;;;;;;5054693;28;20403;-62
2021/05/22 06:10:19;;;;;;;1.67;1.13;;;8.90;99.90;;;;;;5054221;28;20247;-62
2021/05/22 06:12:46;;;;;;;3.10;1.50;;;9.00;99.90;;;;;;5054549;28;20402;-61
2021/05/22 06:17:44;;;;;;;1.37;1.10;;;9.20;99.90;;;;;;5054675;28;20421;-62
2021/05/22 06:20:11;;;;;;;2.33;1.43;;;9.20;99.90;;;;;;5053975;28;20457;-61
2021/05/22 06:22:36;;;;;;;2.63;1.30;;;9.20;99.90;;;;;;5054409;28;20413;-62
2021/05/22 06:25:03;;;;;;;2.37;1.30;;;9.20;99.90;;;;;;5054147;28;20814;-63
2021/05/22 06:27:28;;;;;;;5.43;2.00;;;9.30;99.90;;;;;;5054202;28;20164;-64
2021/05/22 06:29:54;;;;;;;3.13;1.90;;;9.30;99.90;;;;;;5053826;28;20452;-61
2021/05/22 06:32:19;;;;;;;1.67;1.50;;;9.30;99.90;;;;;;5054066;28;20164;-62
2021/05/22 06:34:45;;;;;;;2.80;1.27;;;9.40;99.90;;;;;;5054062;28;20159;-62
2021/05/22 06:37:10;;;;;;;2.50;1.20;;;9.50;99.90;;;;;;5054101;28;20161;-64
2021/05/22 06:39:36;;;;;;;4.90;1.50;;;9.60;99.90;;;;;;5053629;28;20196;-61
2021/05/22 06:42:02;;;;;;;1.47;1.37;;;9.60;99.90;;;;;;5053906;28;20545;-63
2021/05/22 06:44:39;;;;;;;3.33;1.07;;;9.60;99.90;;;;;;5053815;28;20196;-61
2021/05/22 06:47:04;;;;;;;2.60;1.00;;;9.60;99.90;;;;;;5053986;28;20409;-62
2021/05/22 06:49:33;;;;;;;1.73;1.30;;;9.60;99.90;;;;;;5053587;28;20903;-61
2021/05/22 06:52:01;;;;;;;2.87;1.23;;;9.50;99.90;;;;;;5053760;28;20675;-62
2021/05/22 06:54:29;;;;;;;1.90;1.43;;;9.40;99.90;;;;;;5053720;28;20419;-61
2021/05/22 06:56:55;;;;;;;2.60;1.43;;;9.40;99.90;;;;;;5053641;28;20417;-62
2021/05/22 06:59:20;;;;;;;3.60;1.30;;;9.40;99.90;;;;;;5053394;28;20402;-63
2021/05/22 07:01:46;;;;;;;2.40;1.50;;;9.30;99.90;;;;;;5053568;28;20229;-62
2021/05/22 07:04:12;;;;;;;1.27;1.17;;;9.20;99.90;;;;;;5053540;28;20483;-62
2021/05/22 07:06:37;;;;;;;3.33;1.20;;;9.10;99.90;;;;;;5053848;28;20206;-64
2021/05/22 07:09:04;;;;;;;3.33;1.33;;;9.10;99.90;;;;;;5053266;28;20188;-61
2021/05/22 07:11:29;;;;;;;6.50;1.73;;;9.10;99.90;;;;;;5053473;28;20275;-62
2021/05/22 07:13:55;;;;;;;1.67;1.57;;;9.10;99.90;;;;;;5053441;28;20430;-62
2021/05/22 07:16:20;;;;;;;2.60;1.40;;;9.00;99.90;;;;;;5053265;28;20622;-62
2021/05/22 07:18:46;;;;;;;3.80;1.67;;;8.90;99.90;;;;;;5053189;28;20538;-64
2021/05/22 07:21:13;;;;;;;1.73;1.50;;;8.90;99.90;;;;;;5052974;28;20179;-61
2021/05/22 07:23:38;;;;;;;2.50;1.33;;;8.80;99.90;;;;;;5053060;28;20171;-62
2021/05/22 07:26:04;;;;;;;2.07;1.47;;;8.80;99.90;;;;;;5052954;28;20449;-62
2021/05/22 07:28:32;;;;;;;4.50;2.00;;;8.70;99.90;;;;;;5053212;28;20204;-62
2021/05/22 07:30:59;;;;;;;1.13;1.13;;;8.70;99.90;;;;;;5052677;28;20429;-62
2021/05/22 07:33:27;;;;;;;1.37;1.30;;;8.70;99.90;;;;;;5053167;28;20402;-62
2021/05/22 07:35:53;;;;;;;2.73;1.60;;;8.80;99.90;;;;;;5052921;28;20402;-62
2021/05/22 07:38:19;;;;;;;1.70;1.60;;;8.80;99.90;;;;;;5052813;28;20402;-61
2021/05/22 07:40:45;;;;;;;1.40;1.30;;;8.90;99.90;;;;;;5051256;28;20521;-63
2021/05/22 07:43:11;;;;;;;2.10;1.53;;;9.00;99.90;;;;;;5052431;28;20564;-62
2021/05/22 07:45:36;;;;;;;5.73;1.90;;;9.10;99.90;;;;;;5052609;28;20282;-62
2021/05/22 07:48:03;;;;;;;3.57;1.60;;;9.20;99.90;;;;;;5052782;28;20178;-62
2021/05/22 07:50:30;;;;;;;2.43;1.60;;;9.30;99.90;;;;;;5052401;28;20180;-62
2021/05/22 07:52:56;;;;;;;1.50;1.23;;;9.30;99.90;;;;;;5052509;28;20417;-62
2021/05/22 07:55:21;;;;;;;2.87;1.60;;;9.30;99.90;;;;;;5052849;28;20436;-63
2021/05/22 07:57:47;;;;;;;2.03;1.40;;;9.50;99.90;;;;;;5052582;28;20241;-61
2021/05/22 08:00:13;;;;;;;1.27;1.00;;;9.60;99.90;;;;;;5052042;28;20591;-62
2021/05/22 08:02:39;;;;;;;2.70;1.60;;;9.70;99.90;;;;;;5052480;28;20230;-62
2021/05/22 08:05:06;;;;;;;1.77;1.30;;;9.70;99.90;;;;;;5052367;28;20860;-63
2021/05/22 08:07:31;;;;;;;4.83;1.43;;;9.70;99.90;;;;;;5052546;28;20166;-60
2021/05/22 08:09:58;;;;;;;4.30;2.07;;;9.70;99.90;;;;;;5053375;28;20513;-61
2021/05/22 08:12:24;;;;;;;2.80;1.33;;;9.70;99.90;;;;;;5052989;28;20168;-60
2021/05/22 08:14:50;;;;;;;1.47;1.37;;;9.60;99.90;;;;;;5053346;28;20413;-62
2021/05/22 08:17:17;;;;;;;7.40;1.83;;;9.50;99.90;;;;;;5052428;28;20255;-62
2021/05/22 08:19:42;;;;;;;2.30;1.73;;;9.40;99.90;;;;;;5052043;28;20422;-62
2021/05/22 08:22:08;;;;;;;6.33;1.50;;;9.50;99.90;;;;;;5052092;28;20417;-61
2021/05/22 08:24:33;;;;;;;2.30;1.30;;;9.40;99.90;;;;;;5052169;28;20203;-62
2021/05/22 08:26:59;;;;;;;1.67;1.57;;;9.30;99.90;;;;;;5052128;28;20168;-62
2021/05/22 08:29:25;;;;;;;1.57;1.57;;;9.30;99.90;;;;;;5051900;28;20555;-63
2021/05/22 08:31:51;;;;;;;2.57;1.70;;;9.30;99.90;;;;;;5052145;28;20413;-64
2021/05/22 08:34:16;;;;;;;2.93;1.30;;;9.40;99.90;;;;;;5052400;28;20200;-62
2021/05/22 08:36:42;;;;;;;2.63;1.47;;;9.30;99.90;;;;;;5052119;28;20176;-62
2021/05/22 08:39:07;;;;;;;1.33;1.23;;;9.30;99.90;;;;;;5051863;28;20164;-62
2021/05/22 08:41:34;;;;;;;2.30;1.83;;;9.40;99.90;;;;;;5051938;28;20637;-61
2021/05/22 08:44:02;;;;;;;1.63;1.30;;;9.40;99.90;;;;;;5051914;28;20168;-64
2021/05/22 08:46:30;;;;;;;6.33;1.70;;;9.50;99.90;;;;;;5051965;28;20405;-63
2021/05/22 08:48:57;;;;;;;1.70;1.20;;;9.50;99.90;;;;;;5051811;28;20814;-62
2021/05/22 08:51:23;;;;;;;3.17;1.53;;;9.40;99.90;;;;;;5051867;28;20495;-62
2021/05/22 08:53:48;;;;;;;4.03;1.57;;;9.50;99.90;;;;;;5052112;28;20906;-63
2021/05/22 08:56:14;;;;;;;1.90;1.30;;;9.40;99.90;;;;;;5053935;28;20610;-63
2021/05/22 08:58:40;;;;;;;1.50;1.40;;;9.40;99.90;;;;;;5056125;28;20433;-63
2021/05/22 09:01:06;;;;;;;7.60;1.83;;;9.50;99.90;;;;;;5055640;28;20280;-62
2021/05/22 09:03:32;;;;;;;3.43;1.37;;;9.40;99.90;;;;;;5055984;28;20164;-61
2021/05/22 09:05:58;;;;;;;2.30;1.20;;;9.40;99.90;;;;;;5055755;28;20202;-62
2021/05/22 09:08:23;;;;;;;3.93;1.10;;;9.50;99.90;;;;;;5056037;28;20482;-62
2021/05/22 09:10:51;;;;;;;2.97;1.10;;;9.50;99.90;;;;;;5055516;28;20613;-62
2021/05/22 09:13:25;;;;;;;3.63;1.73;;;9.50;99.90;;;;;;5055851;28;20163;-63
2021/05/22 09:16:03;;;;;;;2.87;1.63;;;9.60;99.90;;;;;;5055641;28;20830;-63
2021/05/22 09:18:33;;;;;;;1.33;1.17;;;9.60;99.90;;;;;;5055597;28;20489;-62
2021/05/22 09:21:00;;;;;;;1.60;1.13;;;9.60;99.90;;;;;;5055062;28;20899;-61
2021/05/22 09:23:32;;;;;;;1.10;1.10;;;9.70;99.90;;;;;;5055466;28;20456;-61
2021/05/22 09:26:09;;;;;;;1.60;1.20;;;9.80;99.90;;;;;;5055431;28;20861;-62
2021/05/22 09:28:41;;;;;;;1.73;1.57;;;9.90;99.90;;;;;;5055483;28;20397;-62
2021/05/22 09:31:10;;;;;;;2.60;1.83;;;10.00;99.90;;;;;;5055154;28;20406;-62
2021/05/22 09:33:36;;;;;;;2.90;1.63;;;10.10;99.90;;;;;;5055439;28;20401;-63
2021/05/22 09:36:08;;;;;;;3.13;1.63;;;10.20;99.90;;;;;;5055322;28;20973;-63
2021/05/22 09:38:42;;;;;;;2.00;1.50;;;10.10;99.90;;;;;;5055223;28;20390;-62
2021/05/22 09:41:24;;;;;;;3.03;2.70;;;10.10;99.90;;;;;;5054839;28;20434;-63
2021/05/22 09:44:09;;;;;;;1.40;1.30;;;10.20;99.90;;;;;;5055169;28;20485;-62
2021/05/22 09:46:45;;;;;;;7.63;1.60;;;10.10;99.90;;;;;;5055090;28;20401;-62
2021/05/22 09:49:19;;;;;;;2.13;1.47;;;10.00;99.90;;;;;;5054844;28;20390;-62
2021/05/22 09:51:57;;;;;;;2.17;1.40;;;10.00;99.90;;;;;;5054930;28;20890;-62
2021/05/22 09:54:42;;;;;;;2.53;1.27;;;9.90;99.90;;;;;;5054979;28;20414;-62
2021/05/22 09:57:10;;;;;;;2.20;1.70;;;9.80;99.90;;;;;;5055072;28;20410;-62
2021/05/22 09:59:36;;;;;;;1.63;1.17;;;9.90;99.90;;;;;;5054347;28;20407;-62
2021/05/22 10:02:02;;;;;;;2.87;1.63;;;10.00;99.90;;;;;;5054737;28;20402;-62
2021/05/22 10:04:28;;;;;;;4.73;1.40;;;10.00;99.90;;;;;;5054633;28;20462;-61
2021/05/22 10:06:56;;;;;;;2.10;1.80;;;10.10;99.90;;;;;;5054211;28;20403;-62
2021/05/22 10:09:22;;;;;;;2.17;1.47;;;10.10;99.90;;;;;;5054377;28;20410;-62
2021/05/22 10:12:10;;;;;;;3.80;1.47;;;10.20;99.90;;;;;;5054558;28;20465;-62
2021/05/22 10:14:41;;;;;;;3.47;1.50;;;10.20;99.90;;;;;;5054544;28;20409;-62
2021/05/22 10:17:09;;;;;;;1.30;1.30;;;10.20;99.90;;;;;;5054494;28;20415;-64
2021/05/22 10:19:36;;;;;;;1.57;1.47;;;10.10;99.90;;;;;;5054082;28;20489;-65
2021/05/22 10:22:04;;;;;;;4.80;2.17;;;10.10;99.90;;;;;;5054640;28;20406;-62
2021/05/22 10:24:30;;;;;;;2.70;1.47;;;10.00;99.90;;;;;;5054329;28;20499;-63
2021/05/22 10:26:58;;;;;;;2.80;1.70;;;10.00;99.90;;;;;;5054211;28;20464;-61
2021/05/22 10:29:24;;;;;;;3.53;1.40;;;9.90;99.90;;;;;;5053967;28;20452;-63
2021/05/22 10:31:51;;;;;;;2.60;1.40;;;9.90;99.90;;;;;;5054394;28;20394;-62
2021/05/22 10:34:19;;;;;;;6.67;1.70;;;9.90;99.90;;;;;;5054273;28;20394;-61
2021/05/22 10:36:51;;;;;;;2.13;1.93;;;10.00;99.90;;;;;;5054117;28;20497;-62
2021/05/22 10:39:40;;;;;;;5.90;2.87;;;10.10;99.90;;;;;;5054020;28;20398;-62
2021/05/22 10:42:19;;;;;;;2.13;1.93;;;10.10;99.90;;;;;;5054095;28;20402;-64
2021/05/22 10:44:44;;;;;;;2.10;1.53;;;10.30;99.90;;;;;;5053881;28;20448;-63
2021/05/22 10:47:12;;;;;;;4.03;1.63;;;10.40;99.90;;;;;;5053973;28;20391;-64
2021/05/22 10:49:49;;;;;;;2.77;2.00;;;10.60;99.90;;;;;;5053701;28;20928;-61
2021/05/22 10:52:36;;;;;;;2.50;1.80;;;10.90;99.90;;;;;;5053939;28;20763;-63
2021/05/22 10:55:06;;;;;;;3.00;1.87;;;11.10;99.90;;;;;;5053722;28;20410;-62
2021/05/22 10:57:55;;;;;;;1.50;1.37;;;11.40;99.90;;;;;;5053852;28;20398;-60
2021/05/22 11:00:22;;;;;;;3.70;1.83;;;11.40;99.90;;;;;;5053144;28;20488;-60
2021/05/22 11:02:54;;;;;;;1.57;1.40;;;11.40;99.90;;;;;;5053633;28;20440;-63
2021/05/22 11:05:23;;;;;;;2.97;2.17;;;12.00;99.90;;;;;;5053619;28;20469;-62
2021/05/22 11:08:05;;;;;;;1.27;1.17;;;12.60;99.90;;;;;;5053565;28;20911;-63
2021/05/22 11:10:41;;;;;;;2.93;1.40;;;13.10;99.90;;;;;;5053147;28;20418;-62
2021/05/22 11:13:09;;;;;;;4.57;1.80;;;13.10;99.60;;;;;;5053373;28;20489;-62
2021/05/22 11:16:02;;;;;;;6.87;1.90;;;12.90;98.80;;;;;;5053367;28;20929;-62
2021/05/22 11:18:34;;;;;;;1.80;1.70;;;12.80;99.40;;;;;;5052468;28;20403;-63
2021/05/22 11:21:09;;;;;;;5.23;1.50;;;12.70;99.90;;;;;;5052891;28;20434;-63
2021/05/22 11:24:02;;;;;;;2.30;2.17;;;12.60;99.90;;;;;;5053079;28;20922;-62
2021/05/22 11:26:48;;;;;;;1.73;1.50;;;12.60;99.90;;;;;;5053110;28;20492;-63
2021/05/22 11:29:14;;;;;;;2.60;1.47;;;12.80;99.90;;;;;;5052843;28;20476;-63
2021/05/22 11:31:40;;;;;;;3.10;1.57;;;12.70;99.90;;;;;;5052804;28;20785;-63
2021/05/22 11:34:24;;;;;;;3.23;1.63;;;12.90;99.90;;;;;;5052998;28;20405;-62
2021/05/22 11:37:12;;;;;;;3.70;3.03;;;12.90;99.90;;;;;;5053020;28;20170;-64
2021/05/22 11:39:47;;;;;;;6.03;2.47;;;12.70;99.90;;;;;;5052617;28;20797;-63
2021/05/22 11:42:35;;;;;;;2.23;1.73;;;12.50;99.80;;;;;;5052875;28;20400;-63
2021/05/22 11:45:05;;;;;;;5.83;2.10;;;12.90;99.90;;;;;;5053300;28;20866;-65
2021/05/22 11:47:33;;;;;;;7.50;2.23;;;13.40;99.90;;;;;;5052756;28;20406;-64
2021/05/22 11:49:59;;;;;;;2.83;1.80;;;13.60;96.90;;;;;;5052329;28;20430;-64
2021/05/22 11:52:35;;;;;;;5.23;1.87;;;13.50;97.30;;;;;;5052620;28;20766;-64
2021/05/22 11:55:16;;;;;;;1.70;1.60;;;13.60;97.30;;;;;;5052602;28;20414;-62
2021/05/22 11:57:42;;;;;;;2.50;1.80;;;13.30;96.50;;;;;;5052620;28;20417;-63
2021/05/22 12:00:08;;;;;;;2.40;1.37;;;13.40;97.30;;;;;;5051939;28;20821;-63
2021/05/22 12:02:38;;;;;;;3.73;1.53;;;13.40;96.10;;;;;;5052392;28;20168;-63
2021/05/22 12:05:07;;;;;;;3.13;2.07;;;13.40;97.00;;;;;;5052242;28;20449;-62
2021/05/22 12:07:54;;;;;;;5.43;2.27;;;13.50;95.70;;;;;;5052473;28;20407;-63
2021/05/22 12:10:28;;;;;;;6.10;2.10;;;13.40;96.20;;;;;;5051995;28;20489;-63
2021/05/22 12:13:01;;;;;;;3.80;2.13;;;13.40;96.40;;;;;;5052258;28;20406;-63
2021/05/22 12:15:29;;;;;;;1.43;1.30;;;13.00;96.00;;;;;;5052175;28;20405;-61
2021/05/22 12:18:00;;;;;;;2.73;1.70;;;12.90;95.80;;;;;;5052176;28;20742;-63
2021/05/22 12:20:27;;;;;;;1.83;1.63;;;12.40;96.50;;;;;;5051841;28;20455;-64
2021/05/22 12:22:53;;;;;;;2.73;1.63;;;12.30;97.00;;;;;;5052155;28;20770;-64
2021/05/22 12:25:19;;;;;;;4.03;1.43;;;12.40;97.90;;;;;;5052035;28;20449;-63
2021/05/22 12:27:44;;;;;;;1.93;1.30;;;12.40;97.50;;;;;;5052081;28;20417;-62
2021/05/22 12:30:11;;;;;;;1.70;1.60;;;12.50;97.80;;;;;;5051409;28;20784;-64
2021/05/22 12:32:36;;;;;;;5.30;1.90;;;12.60;98.10;;;;;;5051961;28;20183;-62
2021/05/22 12:35:08;;;;;;;2.20;1.63;;;12.80;97.40;;;;;;5051891;28;20409;-63
2021/05/22 12:37:34;;;;;;;1.73;1.63;;;13.00;97.70;;;;;;5052009;28;20206;-62
2021/05/22 12:40:07;;;;;;;5.73;1.67;;;13.10;96.70;;;;;;5051540;28;20426;-62
2021/05/22 12:42:39;;;;;;;1.50;1.20;;;13.10;95.90;;;;;;5051780;28;20429;-63
2021/05/22 12:45:08;;;;;;;2.50;1.90;;;13.00;95.70;;;;;;5051714;28;20457;-63
2021/05/22 12:47:50;;;;;;;1.87;1.77;;;12.90;96.30;;;;;;5051728;28;20402;-63
2021/05/22 12:50:27;;;;;;;1.50;1.40;;;12.90;97.00;;;;;;5051480;28;20433;-63
2021/05/22 12:52:52;;;;;;;1.47;1.37;;;12.60;96.60;;;;;;5051801;28;20800;-63
2021/05/22 12:55:38;;;;;;;2.67;1.63;;;12.30;97.60;;;;;;5051637;28;20413;-62
2021/05/22 12:58:18;;;;;;;1.77;1.67;;;12.20;99.70;;;;;;5052399;28;20182;-64
2021/05/22 13:00:46;;;;;;;2.17;1.50;;;12.10;98.80;;;;;;5051236;28;20551;-64
2021/05/22 13:03:12;;;;;;;1.83;1.73;;;12.30;99.90;;;;;;5051610;28;20478;-64